sensor_id;sensor_type;location;lat;lon;timestamp;pressure;altitude;pressure_sealevel;temperature;humidity
48614;BME280;34408;51.426;5.444;2022-08-19T00:01:40;101242.34;;;22.18;59.41
48614;BME280;34408;51.426;5.444;2022-08-19T00:04:11;101244.28;;;22.17;59.40
48614;BME280;34408;51.426;5.444;2022-08-19T00:06:40;101241.53;;;22.17;59.28
48614;BME280;34408;51.426;5.444;2022-08-19T00:09:11;101253.88;;;22.15;59.50
48614;BME280;34408;51.426;5.444;2022-08-19T00:11:39;101253.06;;;22.14;59.54
48614;BME280;34408;51.426;5.444;2022-08-19T00:14:10;101251.44;;;22.13;59.54
48614;BME280;34408;51.426;5.444;2022-08-19T00:16:40;101245.16;;;22.13;59.77
48614;BME280;34408;51.426;5.444;2022-08-19T00:19:09;101245.44;;;22.11;59.62
48614;BME280;34408;51.426;5.444;2022-08-19T00:21:37;101249.28;;;22.10;59.69
48614;BME280;34408;51.426;5.444;2022-08-19T00:24:06;101249.84;;;22.07;59.58
48614;BME280;34408;51.426;5.444;2022-08-19T00:26:35;101251.78;;;22.06;59.82
48614;BME280;34408;51.426;5.444;2022-08-19T00:29:06;101252.59;;;22.07;59.55
48614;BME280;34408;51.426;5.444;2022-08-19T00:31:36;101263.03;;;22.05;59.91
48614;BME280;34408;51.426;5.444;2022-08-19T00:34:04;101255.09;;;22.03;59.74
48614;BME280;34408;51.426;5.444;2022-08-19T00:36:32;101258.66;;;22.04;59.60
48614;BME280;34408;51.426;5.444;2022-08-19T00:39:00;101253.47;;;21.97;59.71
48614;BME280;34408;51.426;5.444;2022-08-19T00:41:28;101254.81;;;22.00;59.97
48614;BME280;34408;51.426;5.444;2022-08-19T00:43:58;101256.75;;;21.99;59.80
48614;BME280;34408;51.426;5.444;2022-08-19T00:46:26;101258.13;;;21.97;59.96
48614;BME280;34408;51.426;5.444;2022-08-19T00:48:55;101258.41;;;21.95;59.92
48614;BME280;34408;51.426;5.444;2022-08-19T00:51:24;101259.25;;;21.96;60.02
48614;BME280;34408;51.426;5.444;2022-08-19T00:53:53;101261.44;;;21.94;59.98
48614;BME280;34408;51.426;5.444;2022-08-19T00:56:22;101260.91;;;21.92;59.91
48614;BME280;34408;51.426;5.444;2022-08-19T00:58:49;101254.63;;;21.91;59.85
48614;BME280;34408;51.426;5.444;2022-08-19T01:01:17;101254.63;;;21.91;60.10
48614;BME280;34408;51.426;5.444;2022-08-19T01:03:45;101253.00;;;21.90;59.94
48614;BME280;34408;51.426;5.444;2022-08-19T01:06:25;101254.91;;;21.90;59.94
48614;BME280;34408;51.426;5.444;2022-08-19T01:08:53;101255.22;;;21.88;60.09
48614;BME280;34408;51.426;5.444;2022-08-19T01:11:21;101251.66;;;21.88;59.93
48614;BME280;34408;51.426;5.444;2022-08-19T01:13:50;101249.19;;;21.86;60.19
48614;BME280;34408;51.426;5.444;2022-08-19T01:16:21;101251.13;;;21.86;59.97
48614;BME280;34408;51.426;5.444;2022-08-19T01:18:50;101245.66;;;21.86;59.98
48614;BME280;34408;51.426;5.444;2022-08-19T01:21:23;101242.38;;;21.84;60.09
48614;BME280;34408;51.426;5.444;2022-08-19T01:23:55;101240.75;;;21.83;60.32
48614;BME280;34408;51.426;5.444;2022-08-19T01:26:25;101237.50;;;21.81;60.04
48614;BME280;34408;51.426;5.444;2022-08-19T01:28:56;101240.22;;;21.81;60.39
48614;BME280;34408;51.426;5.444;2022-08-19T01:31:28;101250.63;;;21.79;60.41
48614;BME280;34408;51.426;5.444;2022-08-19T01:33:59;101249.00;;;21.77;60.48
48614;BME280;34408;51.426;5.444;2022-08-19T01:36:29;101252.84;;;21.76;60.40
48614;BME280;34408;51.426;5.444;2022-08-19T01:39:00;101253.94;;;21.75;60.40
48614;BME280;34408;51.426;5.444;2022-08-19T01:41:28;101248.75;;;21.74;60.40
48614;BME280;34408;51.426;5.444;2022-08-19T01:43:55;101251.78;;;21.72;60.56
48614;BME280;34408;51.426;5.444;2022-08-19T01:46:43;101245.22;;;21.73;60.56
48614;BME280;34408;51.426;5.444;2022-08-19T01:49:11;101250.16;;;21.71;60.58
48614;BME280;34408;51.426;5.444;2022-08-19T01:51:39;101250.44;;;21.70;60.58
48614;BME280;34408;51.426;5.444;2022-08-19T01:54:09;101254.28;;;21.69;60.45
48614;BME280;34408;51.426;5.444;2022-08-19T01:56:37;101253.47;;;21.68;60.62
48614;BME280;34408;51.426;5.444;2022-08-19T01:59:08;101251.00;;;21.67;60.50
48614;BME280;34408;51.426;5.444;2022-08-19T02:01:37;101255.13;;;21.64;60.50
48614;BME280;34408;51.426;5.444;2022-08-19T02:04:06;101255.13;;;21.64;60.59
48614;BME280;34408;51.426;5.444;2022-08-19T02:06:34;101270.72;;;21.64;60.40
48614;BME280;34408;51.426;5.444;2022-08-19T02:09:04;101266.34;;;21.63;60.37
48614;BME280;34408;51.426;5.444;2022-08-19T02:11:35;101268.28;;;21.62;60.48
48614;BME280;34408;51.426;5.444;2022-08-19T02:14:06;101273.22;;;21.60;60.42
48614;BME280;34408;51.426;5.444;2022-08-19T02:16:35;101277.06;;;21.59;60.33
48614;BME280;34408;51.426;5.444;2022-08-19T02:19:03;101282.81;;;21.58;60.28
48614;BME280;34408;51.426;5.444;2022-08-19T02:21:32;101272.97;;;21.57;60.26
48614;BME280;34408;51.426;5.444;2022-08-19T02:24:00;101270.00;;;21.53;60.53
48614;BME280;34408;51.426;5.444;2022-08-19T02:26:28;101269.69;;;21.55;60.47
48614;BME280;34408;51.426;5.444;2022-08-19T02:28:57;101279.00;;;21.54;60.30
48614;BME280;34408;51.426;5.444;2022-08-19T02:31:26;101283.94;;;21.52;60.25
48614;BME280;34408;51.426;5.444;2022-08-19T02:33:55;101285.03;;;21.51;60.33
48614;BME280;34408;51.426;5.444;2022-08-19T02:36:24;101277.94;;;21.50;60.28
48614;BME280;34408;51.426;5.444;2022-08-19T02:38:52;101284.22;;;21.50;60.22
48614;BME280;34408;51.426;5.444;2022-08-19T02:41:23;101286.44;;;21.48;60.22
48614;BME280;34408;51.426;5.444;2022-08-19T02:43:53;101294.09;;;21.46;60.22
48614;BME280;34408;51.426;5.444;2022-08-19T02:46:42;101289.72;;;21.45;60.15
48614;BME280;34408;51.426;5.444;2022-08-19T02:49:11;101297.13;;;21.44;60.16
48614;BME280;34408;51.426;5.444;2022-08-19T02:51:43;101293.84;;;21.42;60.26
48614;BME280;34408;51.426;5.444;2022-08-19T02:54:12;101293.84;;;21.42;60.21
48614;BME280;34408;51.426;5.444;2022-08-19T02:56:41;101288.66;;;21.41;60.20
48614;BME280;34408;51.426;5.444;2022-08-19T02:59:08;101292.50;;;21.40;60.14
48614;BME280;34408;51.426;5.444;2022-08-19T03:01:40;101286.22;;;21.39;60.32
48614;BME280;34408;51.426;5.444;2022-08-19T03:04:11;101284.06;;;21.36;60.31
48614;BME280;34408;51.426;5.444;2022-08-19T03:06:41;101278.56;;;21.36;60.11
48614;BME280;34408;51.426;5.444;2022-08-19T03:09:09;101278.88;;;21.35;60.14
48614;BME280;34408;51.426;5.444;2022-08-19T03:11:37;101281.59;;;21.35;60.10
48614;BME280;34408;51.426;5.444;2022-08-19T03:14:07;101281.88;;;21.33;60.24
48614;BME280;34408;51.426;5.444;2022-08-19T03:16:41;101282.97;;;21.32;60.20
48614;BME280;34408;51.426;5.444;2022-08-19T03:19:10;101286.81;;;21.31;60.27
48614;BME280;34408;51.426;5.444;2022-08-19T03:21:38;101292.28;;;21.31;60.13
48614;BME280;34408;51.426;5.444;2022-08-19T03:24:08;101287.09;;;21.30;60.22
48614;BME280;34408;51.426;5.444;2022-08-19T03:26:38;101284.66;;;21.28;60.21
48614;BME280;34408;51.426;5.444;2022-08-19T03:29:08;101287.66;;;21.27;60.06
48614;BME280;34408;51.426;5.444;2022-08-19T03:31:40;101291.22;;;21.27;60.07
48614;BME280;34408;51.426;5.444;2022-08-19T03:34:23;101295.03;;;21.26;60.18
48614;BME280;34408;51.426;5.444;2022-08-19T03:36:53;101292.59;;;21.25;60.15
48614;BME280;34408;51.426;5.444;2022-08-19T03:39:22;101277.28;;;21.24;60.20
48614;BME280;34408;51.426;5.444;2022-08-19T03:41:53;101263.09;;;21.17;60.21
48614;BME280;34408;51.426;5.444;2022-08-19T03:44:43;101272.63;;;21.19;60.19
48614;BME280;34408;51.426;5.444;2022-08-19T03:47:12;101278.91;;;21.20;60.17
48614;BME280;34408;51.426;5.444;2022-08-19T03:49:43;101280.84;;;21.19;60.30
48614;BME280;34408;51.426;5.444;2022-08-19T03:52:11;101269.09;;;21.19;60.16
48614;BME280;34408;51.426;5.444;2022-08-19T03:54:40;101277.56;;;21.17;60.16
48614;BME280;34408;51.426;5.444;2022-08-19T04:00:49;101286.34;;;21.14;60.21
48614;BME280;34408;51.426;5.444;2022-08-19T04:03:17;101281.97;;;21.13;60.28
48614;BME280;34408;51.426;5.444;2022-08-19T04:05:47;101293.19;;;21.11;60.08
48614;BME280;34408;51.426;5.444;2022-08-19T04:08:15;101288.53;;;21.12;60.34
48614;BME280;34408;51.426;5.444;2022-08-19T04:10:47;101276.25;;;21.09;60.22
48614;BME280;34408;51.426;5.444;2022-08-19T04:13:16;101271.06;;;21.08;60.30
48614;BME280;34408;51.426;5.444;2022-08-19T04:15:45;101271.63;;;21.05;60.20
48614;BME280;34408;51.426;5.444;2022-08-19T04:18:13;101278.72;;;21.06;60.27
48614;BME280;34408;51.426;5.444;2022-08-19T04:20:42;101282.56;;;21.05;60.25
48614;BME280;34408;51.426;5.444;2022-08-19T04:23:12;101280.91;;;21.04;60.29
48614;BME280;34408;51.426;5.444;2022-08-19T04:25:43;101273.81;;;21.03;60.33
48614;BME280;34408;51.426;5.444;2022-08-19T04:28:12;101274.91;;;21.02;60.17
48614;BME280;34408;51.426;5.444;2022-08-19T04:30:41;101276.84;;;21.01;60.19
48614;BME280;34408;51.426;5.444;2022-08-19T04:33:09;101262.13;;;20.92;60.13
48614;BME280;34408;51.426;5.444;2022-08-19T04:35:40;101268.09;;;20.99;60.12
48614;BME280;34408;51.426;5.444;2022-08-19T04:38:09;101269.47;;;20.97;60.24
48614;BME280;34408;51.426;5.444;2022-08-19T04:40:41;101274.69;;;20.93;60.26
48614;BME280;34408;51.426;5.444;2022-08-19T04:43:27;101266.22;;;20.95;60.14
48614;BME280;34408;51.426;5.444;2022-08-19T04:45:55;101265.41;;;20.94;60.11
48614;BME280;34408;51.426;5.444;2022-08-19T04:48:26;101271.97;;;20.93;60.10
48614;BME280;34408;51.426;5.444;2022-08-19T04:50:56;101272.78;;;20.94;60.06
48614;BME280;34408;51.426;5.444;2022-08-19T04:53:25;101278.53;;;20.92;60.09
48614;BME280;34408;51.426;5.444;2022-08-19T04:55:57;101270.63;;;20.86;60.22
48614;BME280;34408;51.426;5.444;2022-08-19T04:58:26;101288.09;;;20.90;60.23
48614;BME280;34408;51.426;5.444;2022-08-19T05:00:54;101291.63;;;20.90;59.96
48614;BME280;34408;51.426;5.444;2022-08-19T05:03:22;101297.09;;;20.90;60.12
48614;BME280;34408;51.426;5.444;2022-08-19T05:05:55;101296.56;;;20.88;60.01
48614;BME280;34408;51.426;5.444;2022-08-19T05:08:23;101295.75;;;20.88;60.08
48614;BME280;34408;51.426;5.444;2022-08-19T05:10:59;101300.97;;;20.84;59.99
48614;BME280;34408;51.426;5.444;2022-08-19T05:13:27;101305.03;;;20.87;60.19
48614;BME280;34408;51.426;5.444;2022-08-19T05:15:57;101308.06;;;20.85;60.16
48614;BME280;34408;51.426;5.444;2022-08-19T05:18:26;101308.34;;;20.84;60.11
48614;BME280;34408;51.426;5.444;2022-08-19T05:21:13;101318.44;;;20.83;60.15
48614;BME280;34408;51.426;5.444;2022-08-19T05:23:59;101320.34;;;20.83;60.12
48614;BME280;34408;51.426;5.444;2022-08-19T05:26:28;101320.63;;;20.81;60.20
48614;BME280;34408;51.426;5.444;2022-08-19T05:28:56;101334.03;;;20.83;60.46
48614;BME280;34408;51.426;5.444;2022-08-19T05:31:25;101333.19;;;20.82;60.10
48614;BME280;34408;51.426;5.444;2022-08-19T05:33:53;101334.31;;;20.81;60.19
48614;BME280;34408;51.426;5.444;2022-08-19T05:36:22;101340.88;;;20.80;60.13
48614;BME280;34408;51.426;5.444;2022-08-19T05:38:49;101342.50;;;20.81;60.21
48614;BME280;34408;51.426;5.444;2022-08-19T05:41:20;101340.88;;;20.80;60.13
48614;BME280;34408;51.426;5.444;2022-08-19T05:43:57;101339.53;;;20.77;60.13
48614;BME280;34408;51.426;5.444;2022-08-19T05:46:25;101342.00;;;20.79;60.21
48614;BME280;34408;51.426;5.444;2022-08-19T05:48:53;101348.53;;;20.78;60.23
48614;BME280;34408;51.426;5.444;2022-08-19T05:51:23;101347.72;;;20.77;60.25
48614;BME280;34408;51.426;5.444;2022-08-19T05:53:54;101342.25;;;20.77;60.31
48614;BME280;34408;51.426;5.444;2022-08-19T05:56:22;101336.25;;;20.75;60.39
48614;BME280;34408;51.426;5.444;2022-08-19T05:58:50;101330.78;;;20.75;60.18
48614;BME280;34408;51.426;5.444;2022-08-19T06:01:20;101331.06;;;20.74;60.37
48614;BME280;34408;51.426;5.444;2022-08-19T06:03:48;101331.06;;;20.74;60.42
48614;BME280;34408;51.426;5.444;2022-08-19T06:06:16;101333.00;;;20.73;60.29
48614;BME280;34408;51.426;5.444;2022-08-19T06:08:44;101322.34;;;20.72;60.42
48614;BME280;34408;51.426;5.444;2022-08-19T06:11:21;101328.63;;;20.72;60.35
48614;BME280;34408;51.426;5.444;2022-08-19T06:13:52;101321.25;;;20.73;60.44
48614;BME280;34408;51.426;5.444;2022-08-19T06:16:27;101323.16;;;20.72;60.49
48614;BME280;34408;51.426;5.444;2022-08-19T06:19:00;101323.97;;;20.73;60.50
48614;BME280;34408;51.426;5.444;2022-08-19T06:21:29;101333.81;;;20.74;60.40
48614;BME280;34408;51.426;5.444;2022-08-19T06:23:58;101323.97;;;20.73;60.41
48614;BME280;34408;51.426;5.444;2022-08-19T06:26:26;101325.63;;;20.74;60.41
48614;BME280;34408;51.426;5.444;2022-08-19T06:28:54;101323.69;;;20.74;60.30
48614;BME280;34408;51.426;5.444;2022-08-19T06:31:29;101324.25;;;20.76;60.38
48614;BME280;34408;51.426;5.444;2022-08-19T06:34:00;101322.88;;;20.79;60.32
48614;BME280;34408;51.426;5.444;2022-08-19T06:36:31;101315.47;;;20.79;60.39
48614;BME280;34408;51.426;5.444;2022-08-19T06:39:01;101321.75;;;20.80;60.47
48614;BME280;34408;51.426;5.444;2022-08-19T06:41:30;101325.81;;;20.83;60.25
48614;BME280;34408;51.426;5.444;2022-08-19T06:43:58;101329.09;;;20.85;60.30
48614;BME280;34408;51.426;5.444;2022-08-19T06:46:27;101321.44;;;20.87;60.25
48614;BME280;34408;51.426;5.444;2022-08-19T06:48:59;101323.88;;;20.88;60.39
48614;BME280;34408;51.426;5.444;2022-08-19T06:51:27;101324.72;;;20.89;60.33
48614;BME280;34408;51.426;5.444;2022-08-19T06:53:57;101327.16;;;20.90;60.36
48614;BME280;34408;51.426;5.444;2022-08-19T06:56:28;101316.78;;;20.92;60.46
48614;BME280;34408;51.426;5.444;2022-08-19T06:59:01;101323.06;;;20.93;60.47
48614;BME280;34408;51.426;5.444;2022-08-19T07:01:34;101324.41;;;20.95;60.43
48614;BME280;34408;51.426;5.444;2022-08-19T07:04:05;101318.41;;;20.93;60.71
48614;BME280;34408;51.426;5.444;2022-08-19T07:06:37;101322.22;;;20.97;60.55
48614;BME280;34408;51.426;5.444;2022-08-19T07:09:12;101321.13;;;20.98;60.83
48614;BME280;34408;51.426;5.444;2022-08-19T07:11:45;101328.22;;;20.99;60.73
48614;BME280;34408;51.426;5.444;2022-08-19T07:14:13;101326.31;;;21.00;60.87
48614;BME280;34408;51.426;5.444;2022-08-19T07:16:49;101327.94;;;21.01;60.81
48614;BME280;34408;51.426;5.444;2022-08-19T07:19:18;101335.31;;;21.00;60.90
48614;BME280;34408;51.426;5.444;2022-08-19T07:21:47;101335.31;;;21.00;60.65
48614;BME280;34408;51.426;5.444;2022-08-19T07:24:16;101345.97;;;21.02;60.81
48614;BME280;34408;51.426;5.444;2022-08-19T07:26:45;101341.88;;;20.99;60.84
48614;BME280;34408;51.426;5.444;2022-08-19T07:29:18;101337.78;;;20.97;61.03
48614;BME280;34408;51.426;5.444;2022-08-19T07:31:51;101345.44;;;21.00;60.87
48614;BME280;34408;51.426;5.444;2022-08-19T07:34:23;101347.06;;;21.01;61.01
48614;BME280;34408;51.426;5.444;2022-08-19T07:36:52;101346.53;;;20.99;61.04
48614;BME280;34408;51.426;5.444;2022-08-19T07:39:23;101341.06;;;20.99;61.09
48614;BME280;34408;51.426;5.444;2022-08-19T07:41:51;101349.25;;;20.99;61.25
48614;BME280;34408;51.426;5.444;2022-08-19T07:44:19;101346.53;;;20.99;61.34
48614;BME280;34408;51.426;5.444;2022-08-19T07:46:52;101353.09;;;20.98;61.49
48614;BME280;34408;51.426;5.444;2022-08-19T07:49:20;101359.38;;;20.98;61.49
48614;BME280;34408;51.426;5.444;2022-08-19T07:51:50;101368.41;;;20.99;61.49
48614;BME280;34408;51.426;5.444;2022-08-19T07:54:20;101356.09;;;20.96;61.74
48614;BME280;34408;51.426;5.444;2022-08-19T07:56:48;101371.13;;;20.99;61.68
48614;BME280;34408;51.426;5.444;2022-08-19T07:59:18;101364.03;;;20.98;61.69
48614;BME280;34408;51.426;5.444;2022-08-19T08:01:47;101371.13;;;20.99;61.88
48614;BME280;34408;51.426;5.444;2022-08-19T08:04:18;101371.94;;;20.99;61.74
48614;BME280;34408;51.426;5.444;2022-08-19T08:07:04;101367.28;;;21.00;61.75
48614;BME280;34408;51.426;5.444;2022-08-19T08:09:48;101375.22;;;21.01;62.02
48614;BME280;34408;51.426;5.444;2022-08-19T08:12:19;101377.69;;;21.03;62.07
48614;BME280;34408;51.426;5.444;2022-08-19T08:15:04;101379.59;;;21.02;62.13
48614;BME280;34408;51.426;5.444;2022-08-19T08:17:38;101377.69;;;21.03;62.18
48614;BME280;34408;51.426;5.444;2022-08-19T08:20:19;101377.41;;;21.04;62.04
48614;BME280;34408;51.426;5.444;2022-08-19T08:22:47;101385.59;;;21.04;62.25
48614;BME280;34408;51.426;5.444;2022-08-19T08:25:33;101384.78;;;21.04;62.31
48614;BME280;34408;51.426;5.444;2022-08-19T08:28:02;101385.59;;;21.04;62.43
48614;BME280;34408;51.426;5.444;2022-08-19T08:30:31;101384.50;;;21.05;62.35
48614;BME280;34408;51.426;5.444;2022-08-19T08:33:00;101388.03;;;21.06;62.45
48614;BME280;34408;51.426;5.444;2022-08-19T08:35:29;101392.41;;;21.07;62.41
48614;BME280;34408;51.426;5.444;2022-08-19T08:37:57;101403.34;;;21.07;62.46
48614;BME280;34408;51.426;5.444;2022-08-19T08:40:29;101410.72;;;21.06;62.46
48614;BME280;34408;51.426;5.444;2022-08-19T08:43:01;101403.88;;;21.09;62.38
48614;BME280;34408;51.426;5.444;2022-08-19T08:45:43;101414.53;;;21.10;62.32
48614;BME280;34408;51.426;5.444;2022-08-19T08:48:22;101407.97;;;21.11;62.58
48614;BME280;34408;51.426;5.444;2022-08-19T08:50:54;101411.53;;;21.12;62.31
48614;BME280;34408;51.426;5.444;2022-08-19T08:53:24;101403.06;;;21.13;62.33
48614;BME280;34408;51.426;5.444;2022-08-19T08:55:55;101392.94;;;21.14;62.37
48614;BME280;34408;51.426;5.444;2022-08-19T08:58:28;101392.66;;;21.16;62.33
48614;BME280;34408;51.426;5.444;2022-08-19T09:00:58;101400.59;;;21.17;62.41
48614;BME280;34408;51.426;5.444;2022-08-19T09:03:27;101395.66;;;21.19;62.45
48614;BME280;34408;51.426;5.444;2022-08-19T09:06:01;101397.56;;;21.19;62.49
48614;BME280;34408;51.426;5.444;2022-08-19T09:08:45;101400.84;;;21.21;62.56
48614;BME280;34408;51.426;5.444;2022-08-19T09:11:19;101407.97;;;21.22;62.65
48614;BME280;34408;51.426;5.444;2022-08-19T09:14:18;101406.88;;;21.23;62.49
48614;BME280;34408;51.426;5.444;2022-08-19T09:17:08;101415.09;;;21.23;62.67
48614;BME280;34408;51.426;5.444;2022-08-19T09:19:48;101413.97;;;21.24;62.69
48614;BME280;34408;51.426;5.444;2022-08-19T09:22:18;101414.81;;;21.24;62.70
48614;BME280;34408;51.426;5.444;2022-08-19T09:24:53;101412.34;;;21.23;62.80
48614;BME280;34408;51.426;5.444;2022-08-19T09:27:23;101411.78;;;21.26;62.71
48614;BME280;34408;51.426;5.444;2022-08-19T09:30:11;101422.44;;;21.27;62.94
48614;BME280;34408;51.426;5.444;2022-08-19T09:32:39;101422.44;;;21.27;62.71
48614;BME280;34408;51.426;5.444;2022-08-19T09:35:09;101416.44;;;21.25;62.72
48614;BME280;34408;51.426;5.444;2022-08-19T09:37:38;101417.78;;;21.28;62.78
48614;BME280;34408;51.426;5.444;2022-08-19T09:40:09;101420.25;;;21.29;62.79
48614;BME280;34408;51.426;5.444;2022-08-19T09:42:38;101429.56;;;21.28;62.91
48614;BME280;34408;51.426;5.444;2022-08-19T09:45:18;101428.47;;;21.29;62.75
48614;BME280;34408;51.426;5.444;2022-08-19T09:47:47;101424.91;;;21.29;62.63
48614;BME280;34408;51.426;5.444;2022-08-19T09:50:15;101427.34;;;21.30;62.74
48614;BME280;34408;51.426;5.444;2022-08-19T09:52:46;101421.63;;;21.27;62.82
48614;BME280;34408;51.426;5.444;2022-08-19T09:55:24;101424.63;;;21.30;62.71
48614;BME280;34408;51.426;5.444;2022-08-19T09:57:59;101427.91;;;21.32;62.82
48614;BME280;34408;51.426;5.444;2022-08-19T10:00:27;101427.91;;;21.32;62.70
48614;BME280;34408;51.426;5.444;2022-08-19T10:02:55;101430.34;;;21.34;62.77
48614;BME280;34408;51.426;5.444;2022-08-19T10:05:22;101425.69;;;21.34;62.62
48614;BME280;34408;51.426;5.444;2022-08-19T10:08:09;101439.91;;;21.36;62.72
48614;BME280;34408;51.426;5.444;2022-08-19T10:10:39;101433.34;;;21.37;62.69
48614;BME280;34408;51.426;5.444;2022-08-19T10:13:11;101431.44;;;21.38;62.63
48614;BME280;34408;51.426;5.444;2022-08-19T10:15:39;101428.41;;;21.39;62.58
48614;BME280;34408;51.426;5.444;2022-08-19T10:18:14;101422.94;;;21.39;62.72
48614;BME280;34408;51.426;5.444;2022-08-19T10:20:45;101430.88;;;21.41;62.66
48614;BME280;34408;51.426;5.444;2022-08-19T10:23:19;101432.78;;;21.40;62.66
48614;BME280;34408;51.426;5.444;2022-08-19T10:25:48;101434.41;;;21.41;62.41
48614;BME280;34408;51.426;5.444;2022-08-19T10:28:16;101429.78;;;21.42;62.60
48614;BME280;34408;51.426;5.444;2022-08-19T10:30:45;101429.78;;;21.42;62.36
48614;BME280;34408;51.426;5.444;2022-08-19T10:33:13;101433.31;;;21.42;62.40
48614;BME280;34408;51.426;5.444;2022-08-19T10:36:01;101434.41;;;21.41;62.52
48614;BME280;34408;51.426;5.444;2022-08-19T10:38:31;101429.78;;;21.42;62.57
48614;BME280;34408;51.426;5.444;2022-08-19T10:41:07;101435.25;;;21.42;62.39
48614;BME280;34408;51.426;5.444;2022-08-19T10:43:34;101424.84;;;21.39;62.52
48614;BME280;34408;51.426;5.444;2022-08-19T10:46:05;101430.59;;;21.42;62.34
48614;BME280;34408;51.426;5.444;2022-08-19T10:48:39;101422.38;;;21.42;62.54
48614;BME280;34408;51.426;5.444;2022-08-19T10:51:07;101421.28;;;21.43;62.34
48614;BME280;34408;51.426;5.444;2022-08-19T10:53:54;101419.38;;;21.44;62.41
48614;BME280;34408;51.426;5.444;2022-08-19T10:56:23;101413.63;;;21.46;62.50
48614;BME280;34408;51.426;5.444;2022-08-19T10:59:09;101408.44;;;21.44;62.49
48614;BME280;34408;51.426;5.444;2022-08-19T11:01:41;101420.44;;;21.48;62.24
48614;BME280;34408;51.426;5.444;2022-08-19T11:04:10;101412.78;;;21.50;62.32
48614;BME280;34408;51.426;5.444;2022-08-19T11:06:40;101410.03;;;21.50;62.51
48614;BME280;34408;51.426;5.444;2022-08-19T11:09:11;101413.31;;;21.52;62.27
48614;BME280;34408;51.426;5.444;2022-08-19T11:11:39;101408.66;;;21.53;62.28
48614;BME280;34408;51.426;5.444;2022-08-19T11:14:09;101401.00;;;21.55;62.51
48614;BME280;34408;51.426;5.444;2022-08-19T11:16:37;101408.09;;;21.56;62.38
48614;BME280;34408;51.426;5.444;2022-08-19T11:19:07;101402.63;;;21.56;62.11
48614;BME280;34408;51.426;5.444;2022-08-19T11:21:38;101402.34;;;21.57;62.36
48614;BME280;34408;51.426;5.444;2022-08-19T11:24:09;101407.25;;;21.60;62.41
48614;BME280;34408;51.426;5.444;2022-08-19T11:26:39;101400.72;;;21.56;62.43
48614;BME280;34408;51.426;5.444;2022-08-19T11:29:09;101397.38;;;21.64;62.46
48614;BME280;34408;51.426;5.444;2022-08-19T11:31:41;101404.22;;;21.67;62.10
48614;BME280;34408;51.426;5.444;2022-08-19T11:34:11;101397.34;;;21.69;62.27
48614;BME280;34408;51.426;5.444;2022-08-19T11:36:41;101393.81;;;21.69;62.11
48614;BME280;34408;51.426;5.444;2022-08-19T11:39:12;101390.78;;;21.70;62.26
48614;BME280;34408;51.426;5.444;2022-08-19T11:41:41;101391.31;;;21.72;62.13
48614;BME280;34408;51.426;5.444;2022-08-19T11:44:10;101396.50;;;21.74;62.31
48614;BME280;34408;51.426;5.444;2022-08-19T11:46:37;101396.78;;;21.72;62.42
48614;BME280;34408;51.426;5.444;2022-08-19T11:49:06;101394.31;;;21.76;62.28
48614;BME280;34408;51.426;5.444;2022-08-19T11:51:40;101388.56;;;21.77;62.34
48614;BME280;34408;51.426;5.444;2022-08-19T11:54:10;101386.34;;;21.80;62.13
48614;BME280;34408;51.426;5.444;2022-08-19T11:56:41;101385.25;;;21.81;62.07
48614;BME280;34408;51.426;5.444;2022-08-19T11:59:09;101385.78;;;21.83;62.23
48614;BME280;34408;51.426;5.444;2022-08-19T12:01:40;101387.41;;;21.84;62.12
48614;BME280;34408;51.426;5.444;2022-08-19T12:04:10;101393.41;;;21.86;61.99
48614;BME280;34408;51.426;5.444;2022-08-19T12:06:39;101399.72;;;21.86;62.07
48614;BME280;34408;51.426;5.444;2022-08-19T12:09:09;101397.50;;;21.88;62.00
48614;BME280;34408;51.426;5.444;2022-08-19T12:11:38;101393.97;;;21.88;62.23
48614;BME280;34408;51.426;5.444;2022-08-19T12:14:09;101401.59;;;21.91;62.35
48614;BME280;34408;51.426;5.444;2022-08-19T12:16:40;101399.69;;;21.91;62.31
48614;BME280;34408;51.426;5.444;2022-08-19T12:19:18;101405.69;;;21.93;62.48
48614;BME280;34408;51.426;5.444;2022-08-19T12:21:48;101397.19;;;21.95;62.47
48614;BME280;34408;51.426;5.444;2022-08-19T12:24:16;101402.38;;;21.96;62.20
48614;BME280;34408;51.426;5.444;2022-08-19T12:26:49;101394.97;;;21.97;62.10
48614;BME280;34408;51.426;5.444;2022-08-19T12:29:21;101391.97;;;21.98;62.27
48614;BME280;34408;51.426;5.444;2022-08-19T12:31:57;101390.88;;;21.99;62.16
48614;BME280;34408;51.426;5.444;2022-08-19T12:34:30;101389.50;;;22.02;62.12
48614;BME280;34408;51.426;5.444;2022-08-19T12:37:01;101385.91;;;22.01;62.21
48614;BME280;34408;51.426;5.444;2022-08-19T12:39:29;101398.53;;;22.02;61.99
48614;BME280;34408;51.426;5.444;2022-08-19T12:41:57;101386.19;;;22.05;62.19
48614;BME280;34408;51.426;5.444;2022-08-19T12:44:27;101385.91;;;22.06;62.41
48614;BME280;34408;51.426;5.444;2022-08-19T12:46:59;101381.28;;;22.02;62.33
48614;BME280;34408;51.426;5.444;2022-08-19T12:49:30;101391.91;;;22.08;62.12
48614;BME280;34408;51.426;5.444;2022-08-19T12:52:20;101381.78;;;22.09;62.33
48614;BME280;34408;51.426;5.444;2022-08-19T12:54:49;101387.78;;;22.11;62.23
48614;BME280;34408;51.426;5.444;2022-08-19T12:57:20;101383.13;;;22.12;62.38
48614;BME280;34408;51.426;5.444;2022-08-19T13:00:00;101378.19;;;22.14;62.33
48614;BME280;34408;51.426;5.444;2022-08-19T13:02:30;101372.44;;;22.15;62.49
48614;BME280;34408;51.426;5.444;2022-08-19T13:05:05;101371.84;;;22.18;62.76
48614;BME280;34408;51.426;5.444;2022-08-19T13:07:34;101377.06;;;22.20;62.44
48614;BME280;34408;51.426;5.444;2022-08-19T13:10:04;101365.81;;;22.21;62.76
48614;BME280;34408;51.426;5.444;2022-08-19T13:12:32;101367.16;;;22.24;62.41
48614;BME280;34408;51.426;5.444;2022-08-19T13:15:01;101367.69;;;22.26;62.53